Suffolk, VA (23436)

12:49 AM EST on March 01, 2015 (GMT -0500)
APRSWXNET Suffolk VA US | Change Station
CLOSE
Current Station
Personal Weather Station
Location: Suffolk, VA
Elevation: 85 ft
Nearby Weather Stations

Elev 85 ft 36.88 °N, 76.48 °W | Updated 32 minutes ago

Clear
Clear
29 °F
Feels Like 29 °F
N
3
Wind Variable Wind from East
Gusts 5.0 mph

Today
High -- | Low -- °F
--% Chance of Precip.
Yesterday
High -- | Low -- °F
Precip. -- in
6:37 AM 6:00 PM
Waxing Gibbous, 83% visible
Pressure 30.72 in
Visibility 10.0 miles
Clouds Clear
Windchill 29 °F
Dew Point 23 °F
Humidity 78%
Rainfall 0.03 in
Snow Depth Not available.
UV 0 out of 12
Pollen 4.60 out of 12
Air Quality Not available.
Flu Activity Not available.
METAR KSFQ 010535Z AUTO 00000KT 10SM CLR M05/M07 A3072 RMK AO2 T10471070

More Conditions Fewer Conditions

Pressure 30.72 in
Visibility 10.0 miles
Clouds Clear
Windchill 29 °F
Dew Point 23 °F
Humidity 78%
Rainfall 0.03 in
Snow Depth Not available.
UV 0 out of 12
Pollen 4.60 out of 12
Air Quality Not available.
Flu Activity Not available.
METAR KSFQ 010535Z AUTO 00000KT 10SM CLR M05/M07 A3072 RMK AO2 T10471070

More Conditions Fewer Conditions

10-Day Weather Forecast

Almanac

Astronomy

Mar. 01, 2015 Rise Set
Actual Time
Civil Twilight
Nautical Twilight
Astronomical Twilight
Moon
Length of Visible Light
Length of Day
Tomorrow will be .
, % of the Moon is Illuminated

Today's Extremes

State Highs State Lows

Community

WunderPhotos

Upload Photos

1,801,336 photos uploaded!

WunderBlogs® & News

Nearby

Air Quality

  Air Quality AQ Index Pollutant
Not available.

Snow Depth

Station Depth Elevation

Earthquake Activity

City Distance Mag. Time & Date
Minimum magnitude displayed is 2.5.

Coastal Water Temperatures

Place Temperature

Nearby Weather Stations